Nathaniel B. Palmer — WBP3210 — position and weather

sailwx.info

Track history (hours):
 
Tides and Currents Weather Stations Pressure Air Temp Water Temp Dewpoint Dewpoint Depression Visibility Wind Speed Wind Dir Waves Ship Positions

Oceanographic research ship Nathaniel B. Palmer (USA)

Contact: Ethan Norris, ethan.norris.contractor@usap.gov

Detailed information on ship capabilities available from University of Delaware's Ocean Information Center and ARCUS's ALIAS (Arctic Logistics Information and Support) project.

More information available from US FCC via Universal Licensing System and Coast Guard Vessel Documentation Center.

Last reported at 2014-Aug-20 16:00 UTC. Time now 2014-Aug-20 18:30 UTC.
Position S 52°18' W 068°48'.

Type: Other ship. MMSI: 366610000.

Wind from 110 at 12 knots

Barometer 1011.1 mb
Air temperature 2.6 ° C

Date/timePositionNaut miles runAvg speedWind from/ knotsBaromVisibWave heightAir tempDewpointWater temp
2014-Aug-20 16:00S 52°18' W 068°48'58 9.6 110 / 121011.1 2.6
2014-Aug-20 10:00S 52°36' W 070°18'16 8.1 090 / 181008.2 1.5
2014-Aug-20 08:00S 52°48' W 070°36'4 0.9 090 / 121007.2 3.4
2014-Aug-20 04:00S 52°48' W 070°42'0 0.0 070 / 181009.2 2.9
2014-Aug-20 02:00S 52°48' W 070°42'0 0.0 140 / 161011.2 3.2
2014-Aug-20 00:00S 52°48' W 070°42'0 0.0 150 / 131011.7 3.0
2014-Aug-19 22:00S 52°48' W 070°42'0 0.0 170 / 81013.0 2.9
2014-Aug-19 20:00S 52°48' W 070°42'0 0.0 010 / 91013.6 3.3
2014-Aug-19 18:00S 52°48' W 070°42'0 0.0 030 / 61015.3 3.9
2014-Aug-19 16:00S 52°48' W 070°42'12 3.0 350 / 81016.8 3.4
2014-Aug-19 12:00S 53°00' W 070°42'4 1.8 330 / 41017.4 1.9
2014-Aug-19 10:00S 53°00' W 070°48'0 0.0 360 / 61017.4 1.3
2014-Aug-19 08:00S 53°00' W 070°48'0 0.0 090 / 61017.4 1.3
2014-Aug-19 02:00S 53°00' W 070°48'0 0.0 120 / 91016.1 3.3
2014-Aug-19 00:00S 53°00' W 070°48'0 0.0 250 / 61014.9 3.3
2014-Aug-18 22:00S 53°00' W 070°48'0 0.0 020 / 71013.5 3.8
2014-Aug-18 20:00S 53°00' W 070°48'0 0.0 060 / 131011.9 4.1
2014-Aug-18 16:00S 53°00' W 070°48'0 0.0 340 / 161009.3 3.9
2014-Aug-18 14:00S 53°00' W 070°48'0 0.0 110 / 121008.0 2.5 6.3
2014-Aug-18 12:00S 53°00' W 070°48'0 0.0 240 / 111006.6 0.8 6.3
2014-Aug-18 10:00S 53°00' W 070°48'0 0.0 250 / 101005.0 0.6 6.3
2014-Aug-18 04:00S 53°00' W 070°48'0 0.0 050 / 12999.1 1.6 6.3
2014-Aug-18 02:00S 53°00' W 070°48'0 0.0 040 / 15998.2 1.6 6.3
2014-Aug-17 22:00S 53°00' W 070°48'0 0.0 340 / 11996.7 3.8 6.3
2014-Aug-17 18:00S 53°00' W 070°48'0 0.0 030 / 10997.6 4.0 6.3
2014-Aug-17 16:00S 53°00' W 070°48'0 0.0 300 / 17996.0 5.4 6.3
2014-Aug-17 12:00S 53°00' W 070°48'0 0.0 340 / 4995.0 5.3 6.3
2014-Aug-17 04:00S 53°00' W 070°48'0 0.0 140 / 14993.3 7.7 6.3
2014-Aug-17 02:00S 53°00' W 070°48'0 0.0 240 / 17993.5 8.2 6.3
2014-Aug-17 00:00S 53°00' W 070°48'0 0.0 220 / 15994.0 8.2 6.3
2014-Aug-16 22:00S 53°00' W 070°48'0 0.0 220 / 14994.7 8.1 6.3
2014-Aug-16 18:00S 53°00' W 070°48'0 0.0 330 / 17996.2 7.2 6.3
2014-Aug-16 16:00S 53°00' W 070°48'0 0.0 130 / 8998.0 7.5 6.3
2014-Aug-16 14:00S 53°00' W 070°48'4 0.1 300 / 5998.4 6.5 6.3
2014-Aug-14 12:00S 53°00' W 070°42'12 6.2 360 / 8994.0 3.6 6.3
2014-Aug-14 10:00S 52°54' W 070°24'7211.9 030 / 13996.4 5.1 6.3
2014-Aug-14 04:00S 52°18' W 068°42'2512.5 020 / 181004.7 2.8 6.3
2014-Aug-14 02:00S 52°30' W 068°06'18 9.1 320 / 151006.7 3.3 6.3
2014-Aug-14 00:00S 52°30' W 067°36'2311.4 280 / 101007.7 3.5 6.3
2014-Aug-13 22:00S 52°24' W 067°00'2211.0 230 / 181007.0 4.0 6.3
2014-Aug-13 20:00S 52°12' W 066°30'35 8.6 230 / 271005.7 4.0 6.3
2014-Aug-13 16:00S 51°54' W 065°42'13 6.3 240 / 341003.0 4.5 6.3
2014-Aug-13 14:00S 51°48' W 065°24'29 7.2 250 / 371002.0 4.7 6.3
2014-Aug-13 10:00S 51°30' W 064°48'11 5.6 260 / 42995.9 5.2 6.3
2014-Aug-13 08:00S 51°30' W 064°30'25 6.4 240 / 42996.1 5.9 6.3
2014-Aug-13 04:00S 51°18' W 063°54'16 8.2 280 / 38996.3 6.4 6.3
2014-Aug-13 02:00S 51°06' W 063°36'16 8.1 290 / 35999.8 3.8 6.3
2014-Aug-13 00:00S 51°00' W 063°12'20 9.9 270 / 291003.0 4.8 6.3
2014-Aug-12 22:00S 50°54' W 062°42'14 7.1 240 / 301003.2 4.5 6.3
2014-Aug-12 20:00S 50°42' W 062°30'10 4.8 220 / 391002.1 4.6 6.3
2014-Aug-12 18:00S 50°36' W 062°18'31 7.8 240 / 34997.8 4.7 6.3
2014-Aug-12 14:00S 50°30' W 061°30'13 6.5 220 / 34994.9 3.9 6.3
2014-Aug-12 12:00S 50°24' W 061°12'19 9.7 240 / 30995.3 3.9 6.3
2014-Aug-12 10:00S 50°12' W 060°48'13 6.5 250 / 30994.6 4.0 6.3
2014-Aug-12 08:00S 50°06' W 060°30'30 7.4 260 / 30994.2 3.5 6.3
2014-Aug-12 04:00S 49°54' W 059°48'20 9.8 250 / 36993.9 5.0 6.3
2014-Aug-12 02:00S 49°42' W 059°24'2010.2 260 / 28994.0 4.5 6.3
2014-Aug-12 00:00S 49°36' W 058°54'17 8.3 250 / 27993.1 5.5 6.3
2014-Aug-11 22:00S 49°30' W 058°30'20 9.8 290 / 19993.2 5.7 6.3
2014-Aug-11 20:00S 49°18' W 058°06'17 8.4 310 / 18994.2 5.4 6.3
2014-Aug-11 18:00S 49°12' W 057°42'17 8.4 320 / 17995.4 5.5 6.3
2014-Aug-11 16:00S 49°06' W 057°18'36 9.1 320 / 21996.9 5.5 6.3
2014-Aug-11 12:00S 48°48' W 056°30'17 8.5 290 / 19997.9 5.0 6.3
2014-Aug-11 10:00S 48°42' W 056°06'20 9.9 280 / 20996.9 5.0 6.3
2014-Aug-11 08:00S 48°30' W 055°42'34 8.5 280 / 25996.4 4.9 6.3
2014-Aug-11 04:00S 48°18' W 054°54'37 9.2 270 / 32995.3 5.2 6.1
2014-Aug-11 00:00S 48°00' W 054°06'17 8.5 280 / 33994.1 6.1 7.2
2014-Aug-10 22:00S 47°48' W 053°48'17 8.6 280 / 35994.3 6.5 7.1
2014-Aug-10 20:00S 47°42' W 053°24'14 6.8 280 / 31994.1 6.7 6.8
2014-Aug-10 18:00S 47°36' W 053°06'14 6.8 270 / 38994.2 7.6 12.4
2014-Aug-10 16:00S 47°30' W 052°48'   280 / 39994.6 7.7 12.8
Track history (hours):
 
Tides and Currents Weather Stations Pressure Air Temp Water Temp Dewpoint Dewpoint Depression Visibility Wind Speed Wind Dir Waves Ship Positions

Oceanographic research ship Nathaniel B. Palmer (USA)

Contact: Ethan Norris, ethan.norris.contractor@usap.gov

Detailed information on ship capabilities available from University of Delaware's Ocean Information Center and ARCUS's ALIAS (Arctic Logistics Information and Support) project.

More information available from US FCC via Universal Licensing System and Coast Guard Vessel Documentation Center.

Last reported at 2014-Aug-20 16:00 UTC. Time now 2014-Aug-20 18:30 UTC.
Position S 52°18' W 068°48'.

Type: Other ship. MMSI: 366610000.

Wind from 110 at 12 knots

Barometer 1011.1 mb
Air temperature 2.6 ° C

Date/timePositionNaut miles runAvg speedWind from/ knotsBaromVisibWave heightAir tempDewpointWater temp
2014-Aug-20 16:00S 52°18' W 068°48'58 9.6 110 / 121011.1 2.6
2014-Aug-20 10:00S 52°36' W 070°18'16 8.1 090 / 181008.2 1.5
2014-Aug-20 08:00S 52°48' W 070°36'4 0.9 090 / 121007.2 3.4
2014-Aug-20 04:00S 52°48' W 070°42'0 0.0 070 / 181009.2 2.9
2014-Aug-20 02:00S 52°48' W 070°42'0 0.0 140 / 161011.2 3.2
2014-Aug-20 00:00S 52°48' W 070°42'0 0.0 150 / 131011.7 3.0
2014-Aug-19 22:00S 52°48' W 070°42'0 0.0 170 / 81013.0 2.9
2014-Aug-19 20:00S 52°48' W 070°42'0 0.0 010 / 91013.6 3.3
2014-Aug-19 18:00S 52°48' W 070°42'0 0.0 030 / 61015.3 3.9
2014-Aug-19 16:00S 52°48' W 070°42'12 3.0 350 / 81016.8 3.4
2014-Aug-19 12:00S 53°00' W 070°42'4 1.8 330 / 41017.4 1.9
2014-Aug-19 10:00S 53°00' W 070°48'0 0.0 360 / 61017.4 1.3
2014-Aug-19 08:00S 53°00' W 070°48'0 0.0 090 / 61017.4 1.3
2014-Aug-19 02:00S 53°00' W 070°48'0 0.0 120 / 91016.1 3.3
2014-Aug-19 00:00S 53°00' W 070°48'0 0.0 250 / 61014.9 3.3
2014-Aug-18 22:00S 53°00' W 070°48'0 0.0 020 / 71013.5 3.8
2014-Aug-18 20:00S 53°00' W 070°48'0 0.0 060 / 131011.9 4.1
2014-Aug-18 16:00S 53°00' W 070°48'0 0.0 340 / 161009.3 3.9
2014-Aug-18 14:00S 53°00' W 070°48'0 0.0 110 / 121008.0 2.5 6.3
2014-Aug-18 12:00S 53°00' W 070°48'0 0.0 240 / 111006.6 0.8 6.3
2014-Aug-18 10:00S 53°00' W 070°48'0 0.0 250 / 101005.0 0.6 6.3
2014-Aug-18 04:00S 53°00' W 070°48'0 0.0 050 / 12999.1 1.6 6.3
2014-Aug-18 02:00S 53°00' W 070°48'0 0.0 040 / 15998.2 1.6 6.3
2014-Aug-17 22:00S 53°00' W 070°48'0 0.0 340 / 11996.7 3.8 6.3
2014-Aug-17 18:00S 53°00' W 070°48'0 0.0 030 / 10997.6 4.0 6.3
2014-Aug-17 16:00S 53°00' W 070°48'0 0.0 300 / 17996.0 5.4 6.3
2014-Aug-17 12:00S 53°00' W 070°48'0 0.0 340 / 4995.0 5.3 6.3
2014-Aug-17 04:00S 53°00' W 070°48'0 0.0 140 / 14993.3 7.7 6.3
2014-Aug-17 02:00S 53°00' W 070°48'0 0.0 240 / 17993.5 8.2 6.3
2014-Aug-17 00:00S 53°00' W 070°48'0 0.0 220 / 15994.0 8.2 6.3
2014-Aug-16 22:00S 53°00' W 070°48'0 0.0 220 / 14994.7 8.1 6.3
2014-Aug-16 18:00S 53°00' W 070°48'0 0.0 330 / 17996.2 7.2 6.3
2014-Aug-16 16:00S 53°00' W 070°48'0 0.0 130 / 8998.0 7.5 6.3
2014-Aug-16 14:00S 53°00' W 070°48'4 0.1 300 / 5998.4 6.5 6.3
2014-Aug-14 12:00S 53°00' W 070°42'12 6.2 360 / 8994.0 3.6 6.3
2014-Aug-14 10:00S 52°54' W 070°24'7211.9 030 / 13996.4 5.1 6.3
2014-Aug-14 04:00S 52°18' W 068°42'2512.5 020 / 181004.7 2.8 6.3
2014-Aug-14 02:00S 52°30' W 068°06'18 9.1 320 / 151006.7 3.3 6.3
2014-Aug-14 00:00S 52°30' W 067°36'2311.4 280 / 101007.7 3.5 6.3
2014-Aug-13 22:00S 52°24' W 067°00'2211.0 230 / 181007.0 4.0 6.3
2014-Aug-13 20:00S 52°12' W 066°30'35 8.6 230 / 271005.7 4.0 6.3
2014-Aug-13 16:00S 51°54' W 065°42'13 6.3 240 / 341003.0 4.5 6.3
2014-Aug-13 14:00S 51°48' W 065°24'29 7.2 250 / 371002.0 4.7 6.3
2014-Aug-13 10:00S 51°30' W 064°48'11 5.6 260 / 42995.9 5.2 6.3
2014-Aug-13 08:00S 51°30' W 064°30'25 6.4 240 / 42996.1 5.9 6.3
2014-Aug-13 04:00S 51°18' W 063°54'16 8.2 280 / 38996.3 6.4 6.3
2014-Aug-13 02:00S 51°06' W 063°36'16 8.1 290 / 35999.8 3.8 6.3
2014-Aug-13 00:00S 51°00' W 063°12'20 9.9 270 / 291003.0 4.8 6.3
2014-Aug-12 22:00S 50°54' W 062°42'14 7.1 240 / 301003.2 4.5 6.3
2014-Aug-12 20:00S 50°42' W 062°30'10 4.8 220 / 391002.1 4.6 6.3
2014-Aug-12 18:00S 50°36' W 062°18'31 7.8 240 / 34997.8 4.7 6.3
2014-Aug-12 14:00S 50°30' W 061°30'13 6.5 220 / 34994.9 3.9 6.3
2014-Aug-12 12:00S 50°24' W 061°12'19 9.7 240 / 30995.3 3.9 6.3
2014-Aug-12 10:00S 50°12' W 060°48'13 6.5 250 / 30994.6 4.0 6.3
2014-Aug-12 08:00S 50°06' W 060°30'30 7.4 260 / 30994.2 3.5 6.3
2014-Aug-12 04:00S 49°54' W 059°48'20 9.8 250 / 36993.9 5.0 6.3
2014-Aug-12 02:00S 49°42' W 059°24'2010.2 260 / 28994.0 4.5 6.3
2014-Aug-12 00:00S 49°36' W 058°54'17 8.3 250 / 27993.1 5.5 6.3
2014-Aug-11 22:00S 49°30' W 058°30'20 9.8 290 / 19993.2 5.7 6.3
2014-Aug-11 20:00S 49°18' W 058°06'17 8.4 310 / 18994.2 5.4 6.3
2014-Aug-11 18:00S 49°12' W 057°42'17 8.4 320 / 17995.4 5.5 6.3
2014-Aug-11 16:00S 49°06' W 057°18'36 9.1 320 / 21996.9 5.5 6.3
2014-Aug-11 12:00S 48°48' W 056°30'17 8.5 290 / 19997.9 5.0 6.3
2014-Aug-11 10:00S 48°42' W 056°06'20 9.9 280 / 20996.9 5.0 6.3
2014-Aug-11 08:00S 48°30' W 055°42'34 8.5 280 / 25996.4 4.9 6.3
2014-Aug-11 04:00S 48°18' W 054°54'37 9.2 270 / 32995.3 5.2 6.1
2014-Aug-11 00:00S 48°00' W 054°06'17 8.5 280 / 33994.1 6.1 7.2
2014-Aug-10 22:00S 47°48' W 053°48'17 8.6 280 / 35994.3 6.5 7.1
2014-Aug-10 20:00S 47°42' W 053°24'14 6.8 280 / 31994.1 6.7 6.8
2014-Aug-10 18:00S 47°36' W 053°06'14 6.8 270 / 38994.2 7.6 12.4
2014-Aug-10 16:00S 47°30' W 052°48'   280 / 39994.6 7.7 12.8

Dump ship's entire track history